< Typhoon 198819 1988 Season Typhoon 198821 >
Typhoon 198820 (JEFF)
General InformationTrack Information on Google MapsDetailed Wind InformationList of All Images || Disaster Info.ResourceGoogle EarthGE AnimationAtom FeedGeoJSON
Detalied Best Track (Time Zone = UTC)
Year Month Day Hour Lat. Long. Pressure (hPa) Wind (kt) Class Image Chart
1988 9 11 06 15.0 132.0 1004 0 2 Image Chart
1988 9 11 12 15.0 132.0 1004 0 2 Image Chart
1988 9 11 18 15.5 132.0 1002 0 2 Image Chart
1988 9 12 00 15.5 132.0 1002 0 2 Image Chart
1988 9 12 06 16.0 132.5 1002 0 2 Image Chart
1988 9 12 12 16.0 132.5 1000 0 2 Image Chart
1988 9 12 18 16.0 132.5 1000 0 2 Image Chart
1988 9 13 00 16.0 133.0 1000 0 2 Image Chart
1988 9 13 06 16.5 134.0 1000 0 2 Image Chart
1988 9 13 12 16.5 135.0 998 0 2 Image Chart
1988 9 13 18 16.5 136.0 996 35 3 Image Chart
1988 9 14 00 16.6 136.8 996 35 3 Image Chart
1988 9 14 06 17.3 137.5 994 45 3 Image Chart
1988 9 14 12 18.4 138.2 994 45 3 Image Chart
1988 9 14 18 19.5 139.0 994 45 3 Image Chart
1988 9 15 00 20.6 139.6 994 45 3 Image Chart
1988 9 15 06 22.0 140.2 996 45 3 Image Chart
1988 9 15 12 23.1 140.6 996 45 3 Image Chart
1988 9 15 18 24.2 141.1 998 45 3 Image Chart
1988 9 16 00 25.5 141.5 1000 0 2 Image Chart
1988 9 16 06 27.0 143.0 1004 0 2 Image Chart
1988 9 16 12 28.5 144.5 1008 0 2 Image Chart
1988 9 16 18 29.8 146.0 1010 0 2 Image Chart
1988 9 17 00 31.0 147.5 1012 0 2 Image Chart
Japan Meteorological Agency Best Track Data | Correction Date : 1992-10-21
< Typhoon 198819 1988 Season Typhoon 198821 >

Help